createdAt,value
2022-12-13T00:01:54.853Z,4.35
2022-12-13T00:04:24.432Z,4.50
2022-12-13T00:06:55.295Z,4.03
2022-12-13T00:09:23.618Z,4.75
2022-12-13T00:11:52.424Z,4.43
2022-12-13T00:14:20.648Z,4.68
2022-12-13T00:16:50.206Z,5.10
2022-12-13T00:19:18.841Z,5.45
2022-12-13T00:21:48.060Z,4.97
2022-12-13T00:24:16.330Z,4.30
2022-12-13T00:26:44.240Z,4.07
2022-12-13T00:29:12.536Z,6.60
2022-12-13T00:32:00.457Z,6.82
2022-12-13T00:34:30.075Z,4.72
2022-12-13T00:37:01.243Z,3.90
2022-12-13T00:39:29.606Z,4.60
2022-12-13T00:41:58.142Z,4.55
2022-12-13T00:44:26.864Z,5.05
2022-12-13T00:46:54.965Z,4.03
2022-12-13T00:49:23.535Z,4.20
2022-12-13T00:51:51.351Z,4.25
2022-12-13T00:54:19.533Z,4.63
2022-12-13T00:56:47.699Z,4.95
2022-12-13T00:59:16.044Z,5.78
2022-12-13T01:01:44.715Z,6.43
2022-12-13T01:04:12.630Z,4.10
2022-12-13T01:06:46.504Z,3.55
2022-12-13T01:09:23.187Z,4.47
2022-12-13T01:11:51.360Z,4.75
2022-12-13T01:14:20.541Z,4.47
2022-12-13T01:16:48.545Z,5.70
2022-12-13T01:19:16.687Z,4.95
2022-12-13T01:21:44.645Z,3.88
2022-12-13T01:24:12.383Z,5.25
2022-12-13T01:26:40.249Z,17.20
2022-12-13T01:29:09.207Z,6.32
2022-12-13T01:31:41.730Z,5.20
2022-12-13T01:34:14.741Z,12.73
2022-12-13T01:36:44.998Z,5.65
2022-12-13T01:39:15.653Z,5.85
2022-12-13T01:41:48.837Z,5.05
2022-12-13T01:44:54.087Z,9.32
2022-12-13T02:01:35.022Z,5.20
2022-12-13T02:04:03.070Z,4.72
2022-12-13T02:09:35.395Z,7.97
2022-12-13T02:12:04.421Z,4.97
2022-12-13T02:14:33.075Z,4.80
2022-12-13T02:17:22.445Z,5.47
2022-12-13T02:20:11.941Z,7.43
2022-12-13T02:23:16.593Z,5.85
2022-12-13T02:28:41.304Z,5.22
2022-12-13T02:31:29.613Z,6.15
2022-12-13T02:34:34.739Z,6.55
2022-12-13T02:37:17.507Z,7.18
2022-12-13T02:40:44.735Z,4.55
2022-12-13T02:43:33.659Z,4.85
2022-12-13T02:46:03.928Z,4.72
2022-12-13T02:48:37.186Z,6.78
2022-12-13T02:51:07.284Z,6.25
2022-12-13T02:53:36.972Z,5.88
2022-12-13T02:56:05.054Z,6.30
2022-12-13T03:01:28.863Z,4.72
2022-12-13T03:04:35.706Z,5.40
2022-12-13T03:07:31.965Z,4.90
2022-12-13T03:10:22.035Z,4.78
2022-12-13T03:13:38.085Z,4.38
2022-12-13T03:16:15.023Z,3.72
2022-12-13T03:18:54.321Z,6.93
2022-12-13T03:21:23.552Z,5.45
2022-12-13T03:26:26.854Z,5.10
2022-12-13T03:28:55.040Z,8.65
2022-12-13T03:31:23.036Z,5.53
2022-12-13T03:33:51.131Z,10.27
2022-12-13T03:36:19.768Z,8.25
2022-12-13T03:38:49.219Z,8.80
2022-12-13T03:41:21.132Z,9.90
2022-12-13T03:43:50.439Z,9.95
2022-12-13T03:46:25.446Z,6.90
2022-12-13T03:48:53.369Z,6.47
2022-12-13T03:51:21.570Z,7.07
2022-12-13T03:53:49.400Z,7.30
2022-12-13T03:56:17.282Z,5.82
2022-12-13T03:58:48.931Z,7.60
2022-12-13T04:01:19.406Z,10.95
2022-12-13T04:03:48.048Z,23.88
2022-12-13T04:06:22.217Z,9.73
2022-12-13T04:08:52.835Z,6.72
2022-12-13T04:11:42.811Z,4.82
2022-12-13T04:14:22.644Z,8.18
2022-12-13T04:16:52.602Z,4.82
2022-12-13T04:19:22.681Z,4.70
2022-12-13T04:21:54.416Z,8.95
2022-12-13T04:24:31.687Z,4.85
2022-12-13T04:27:01.965Z,9.25
2022-12-13T04:29:34.248Z,5.70
2022-12-13T04:32:05.080Z,13.80
2022-12-13T04:34:37.341Z,9.15
2022-12-13T04:37:06.268Z,10.93
2022-12-13T04:39:34.716Z,8.15
2022-12-13T04:42:05.021Z,12.73
2022-12-13T04:44:36.871Z,27.75
2022-12-13T04:47:06.037Z,10.45
2022-12-13T04:49:34.687Z,12.35
2022-12-13T04:52:03.785Z,10.60
2022-12-13T04:54:36.010Z,9.73
2022-12-13T04:57:11.289Z,11.85
2022-12-13T04:59:40.305Z,13.40
2022-12-13T05:02:09.370Z,13.23
2022-12-13T05:04:37.342Z,14.48
2022-12-13T05:07:05.522Z,12.65
2022-12-13T05:09:33.453Z,18.25
2022-12-13T05:12:02.159Z,13.05
2022-12-13T05:14:31.871Z,14.35
2022-12-13T05:17:01.391Z,13.55
2022-12-13T05:19:30.307Z,15.02
2022-12-13T05:22:01.418Z,16.33
2022-12-13T05:24:33.139Z,17.45
2022-12-13T05:27:01.295Z,20.88
2022-12-13T05:29:29.302Z,32.40
2022-12-13T05:31:57.638Z,23.48
2022-12-13T05:34:25.953Z,22.27
2022-12-13T05:36:53.976Z,27.88
2022-12-13T05:39:29.286Z,19.02
2022-12-13T05:44:31.961Z,27.38
2022-12-13T05:47:02.008Z,23.40
2022-12-13T05:49:32.423Z,30.75
2022-12-13T05:54:28.678Z,22.20
2022-12-13T05:56:57.397Z,45.05
2022-12-13T05:59:25.493Z,40.08
2022-12-13T06:01:53.480Z,28.80
2022-12-13T06:04:22.299Z,26.70
2022-12-13T06:06:52.348Z,28.63
2022-12-13T06:09:21.542Z,19.85
2022-12-13T06:11:50.076Z,24.95
2022-12-13T06:14:22.469Z,19.30
2022-12-13T06:16:53.130Z,13.57
2022-12-13T06:19:23.869Z,10.63
2022-12-13T06:21:53.970Z,11.85
2022-12-13T06:24:23.591Z,22.60
2022-12-13T06:26:52.118Z,19.13
2022-12-13T06:29:23.513Z,11.60
2022-12-13T06:32:02.327Z,13.48
2022-12-13T06:34:36.403Z,16.92
2022-12-13T06:37:07.431Z,13.60
2022-12-13T06:39:35.611Z,13.30
2022-12-13T06:42:08.152Z,23.25
2022-12-13T06:44:36.875Z,29.00
2022-12-13T06:47:11.896Z,32.00
2022-12-13T06:49:44.592Z,19.58
2022-12-13T06:52:14.851Z,20.63
2022-12-13T06:54:43.718Z,12.00
2022-12-13T06:57:13.071Z,18.67
2022-12-13T06:59:41.639Z,14.10
2022-12-13T07:02:24.773Z,14.38
2022-12-13T07:04:54.791Z,14.38
2022-12-13T07:07:23.743Z,13.95
2022-12-13T07:09:51.721Z,14.43
2022-12-13T07:12:21.197Z,14.57
2022-12-13T07:14:49.476Z,14.45
2022-12-13T07:17:34.047Z,13.15
2022-12-13T07:20:10.692Z,13.55
2022-12-13T07:22:45.171Z,16.50
2022-12-13T07:25:27.596Z,14.13
2022-12-13T07:28:03.098Z,13.88
2022-12-13T07:30:41.040Z,15.13
2022-12-13T07:33:10.721Z,15.98
2022-12-13T07:35:39.326Z,8.88
2022-12-13T07:38:09.067Z,9.85
2022-12-13T07:40:39.916Z,21.35
2022-12-13T07:43:12.289Z,17.25
2022-12-13T07:45:40.245Z,12.40
2022-12-13T07:48:11.576Z,12.90
2022-12-13T07:58:52.767Z,8.30
2022-12-13T08:01:20.745Z,9.43
2022-12-13T08:03:49.388Z,9.90
2022-12-13T08:06:20.085Z,11.15
2022-12-13T08:08:51.043Z,11.48
2022-12-13T08:11:22.377Z,15.30
2022-12-13T08:13:50.498Z,12.07
2022-12-13T08:16:28.353Z,14.15
2022-12-13T08:19:04.028Z,14.63
2022-12-13T08:24:25.504Z,12.15
2022-12-13T08:27:02.552Z,21.80
2022-12-13T08:29:35.623Z,18.13
2022-12-13T08:32:07.442Z,14.00
2022-12-13T08:34:35.639Z,15.63
2022-12-13T08:37:04.764Z,9.35
2022-12-13T08:42:15.920Z,13.52
2022-12-13T08:44:48.040Z,15.15
2022-12-13T08:47:23.006Z,18.08
2022-12-13T08:49:55.309Z,7.35
2022-12-13T08:52:24.090Z,10.07
2022-12-13T08:54:52.098Z,10.48
2022-12-13T08:57:20.168Z,14.02
2022-12-13T08:59:48.152Z,12.13
2022-12-13T09:02:16.771Z,11.25
2022-12-13T09:04:45.120Z,19.55
2022-12-13T09:07:13.572Z,23.58
2022-12-13T09:09:41.578Z,12.30
2022-12-13T09:12:10.949Z,18.40
2022-12-13T09:15:01.691Z,23.38
2022-12-13T09:17:37.244Z,20.52
2022-12-13T09:20:10.143Z,18.23
2022-12-13T09:23:01.638Z,8.68
2022-12-13T09:25:37.202Z,9.40
2022-12-13T09:28:08.000Z,12.20
2022-12-13T09:30:37.977Z,25.20
2022-12-13T09:33:28.344Z,14.20
2022-12-13T09:35:54.668Z,7.82
2022-12-13T09:38:22.763Z,13.98
2022-12-13T09:40:59.056Z,6.63
2022-12-13T09:43:33.441Z,6.63
2022-12-13T09:46:34.893Z,16.67
2022-12-13T09:49:25.052Z,5.50
2022-12-13T09:52:11.315Z,6.75
2022-12-13T09:54:54.256Z,5.80
2022-12-13T09:57:33.831Z,8.80
2022-12-13T10:00:07.121Z,14.13
2022-12-13T10:02:48.199Z,20.95
2022-12-13T10:05:39.616Z,11.35
2022-12-13T10:08:22.864Z,7.10
2022-12-13T10:10:53.471Z,6.53
2022-12-13T10:14:01.395Z,8.73
2022-12-13T10:16:37.069Z,10.23
2022-12-13T10:19:35.266Z,6.93
2022-12-13T10:22:06.526Z,4.30
2022-12-13T10:25:10.500Z,4.85
2022-12-13T10:27:47.929Z,6.22
2022-12-13T10:30:29.107Z,5.93
2022-12-13T10:32:59.558Z,6.30
2022-12-13T10:35:32.128Z,7.13
2022-12-13T10:38:31.752Z,7.95
2022-12-13T10:41:00.911Z,6.43
2022-12-13T10:43:35.445Z,7.22
2022-12-13T10:46:18.435Z,8.88
2022-12-13T10:51:23.111Z,5.75
2022-12-13T10:53:57.541Z,5.32
2022-12-13T10:56:54.267Z,5.65
2022-12-13T10:59:32.423Z,5.53
2022-12-13T11:02:04.017Z,7.22
2022-12-13T11:04:34.369Z,6.32
2022-12-13T11:11:18.739Z,7.97
2022-12-13T11:13:52.429Z,6.38
2022-12-13T11:16:28.284Z,7.57
2022-12-13T11:19:00.978Z,8.23
2022-12-13T11:21:31.378Z,12.65
2022-12-13T11:24:03.971Z,10.68
2022-12-13T11:26:36.664Z,11.75
2022-12-13T11:29:16.949Z,11.65
2022-12-13T11:32:00.229Z,14.60
2022-12-13T11:35:07.100Z,12.05
2022-12-13T11:38:26.817Z,10.65
2022-12-13T11:41:07.696Z,11.50
2022-12-13T11:44:01.455Z,15.05
2022-12-13T11:46:41.139Z,34.17
2022-12-13T11:49:35.727Z,12.13
2022-12-13T11:52:27.450Z,10.52
2022-12-13T11:55:10.266Z,10.57
2022-12-13T11:57:46.613Z,10.18
2022-12-13T12:00:34.156Z,11.27
2022-12-13T12:03:20.903Z,18.80
2022-12-13T12:05:56.611Z,29.52
2022-12-13T12:08:39.332Z,15.40
2022-12-13T12:11:12.887Z,14.82
2022-12-13T12:13:50.775Z,14.30
2022-12-13T12:16:36.207Z,18.65
2022-12-13T12:19:19.043Z,12.90
2022-12-13T12:22:22.478Z,16.60
2022-12-13T12:25:27.430Z,12.30
2022-12-13T12:28:13.990Z,13.85
2022-12-13T12:31:03.192Z,11.70
2022-12-13T12:33:49.708Z,12.68
2022-12-13T12:36:30.496Z,12.68
2022-12-13T12:39:10.664Z,16.58
2022-12-13T12:41:50.511Z,14.55
2022-12-13T12:44:18.468Z,13.40
2022-12-13T12:48:07.165Z,13.48
2022-12-13T12:50:29.287Z,15.75
2022-12-13T12:53:08.444Z,25.05
2022-12-13T12:55:50.629Z,15.15
2022-12-13T12:58:26.293Z,19.00
2022-12-13T13:01:06.780Z,16.15
2022-12-13T13:03:37.469Z,15.75
2022-12-13T13:06:16.187Z,14.30
2022-12-13T13:08:55.628Z,19.40
2022-12-13T13:11:26.604Z,25.48
2022-12-13T13:14:04.368Z,26.65
2022-12-13T13:16:42.046Z,30.23
2022-12-13T13:19:16.734Z,16.23
2022-12-13T13:22:02.138Z,17.40
2022-12-13T13:24:32.546Z,12.88
2022-12-13T13:27:09.729Z,25.42
2022-12-13T13:29:43.860Z,23.75
2022-12-13T13:32:12.355Z,40.10
2022-12-13T13:35:29.072Z,24.58
2022-12-13T13:37:59.579Z,27.02
2022-12-13T13:40:32.183Z,23.08
2022-12-13T13:43:06.600Z,17.25
2022-12-13T13:45:49.805Z,16.80
2022-12-13T13:48:59.693Z,13.73
2022-12-13T13:52:01.041Z,15.80
2022-12-13T13:55:05.817Z,16.58
2022-12-13T14:04:38.715Z,21.23
2022-12-13T14:10:25.764Z,18.35
2022-12-13T14:13:12.456Z,26.00
2022-12-13T14:16:11.996Z,21.10
2022-12-13T14:19:23.790Z,20.05
2022-12-13T14:22:03.528Z,14.75
2022-12-13T14:24:43.769Z,14.55
2022-12-13T14:27:36.636Z,23.10
2022-12-13T14:30:18.020Z,22.58
2022-12-13T14:32:54.277Z,20.05
2022-12-13T14:35:32.759Z,23.20
2022-12-13T14:38:06.582Z,25.92
2022-12-13T14:40:49.351Z,25.02
2022-12-13T14:43:31.947Z,22.45
2022-12-13T14:46:01.408Z,17.05
2022-12-13T14:48:34.481Z,17.75
2022-12-13T14:51:02.771Z,19.40
2022-12-13T14:53:41.611Z,20.90
2022-12-13T14:56:09.728Z,26.50
2022-12-13T14:58:39.316Z,42.58
2022-12-13T15:01:35.588Z,36.55
2022-12-13T15:04:21.785Z,22.52
2022-12-13T15:06:58.942Z,34.40
2022-12-13T15:09:28.956Z,33.97
2022-12-13T15:12:14.783Z,22.95
2022-12-13T15:14:51.555Z,21.23
2022-12-13T15:17:40.081Z,20.45
2022-12-13T15:20:25.143Z,20.30
2022-12-13T15:23:15.961Z,37.92
2022-12-13T15:25:46.048Z,31.65
2022-12-13T15:28:21.227Z,34.33
2022-12-13T15:30:51.075Z,40.47
2022-12-13T15:36:01.687Z,73.43
2022-12-13T15:38:30.375Z,34.97
2022-12-13T15:41:01.176Z,37.72
2022-12-13T15:43:42.266Z,34.20
2022-12-13T15:46:11.028Z,29.85
2022-12-13T15:48:48.444Z,25.92
2022-12-13T15:51:29.657Z,34.88
2022-12-13T15:54:11.283Z,29.25
2022-12-13T15:56:41.737Z,23.58
2022-12-13T15:59:27.850Z,28.75
2022-12-13T16:01:58.725Z,31.23
2022-12-13T16:04:33.159Z,34.13
2022-12-13T16:07:02.523Z,26.23
2022-12-13T16:12:06.241Z,26.65
2022-12-13T16:14:35.278Z,26.00
2022-12-13T16:17:15.497Z,38.55
2022-12-13T16:19:44.339Z,41.42
2022-12-13T16:22:12.797Z,41.80
2022-12-13T16:24:40.788Z,45.28
2022-12-13T16:27:10.095Z,47.88
2022-12-13T16:29:38.765Z,39.45
2022-12-13T16:32:08.766Z,35.13
2022-12-13T16:34:38.550Z,35.72
2022-12-13T16:37:26.319Z,24.48
2022-12-13T16:39:58.196Z,28.33
2022-12-13T16:42:27.219Z,21.08
2022-12-13T16:45:24.845Z,25.00
2022-12-13T16:47:49.931Z,16.52
2022-12-13T16:50:21.305Z,29.75
2022-12-13T16:52:49.743Z,24.88
2022-12-13T16:55:17.832Z,32.75
2022-12-13T16:57:56.841Z,25.80
2022-12-13T17:00:26.930Z,26.30
2022-12-13T17:02:56.641Z,31.85
2022-12-13T17:05:26.959Z,23.27
2022-12-13T17:07:57.029Z,38.47
2022-12-13T17:10:25.848Z,21.55
2022-12-13T17:12:55.292Z,21.05
2022-12-13T17:15:24.196Z,31.17
2022-12-13T17:17:52.868Z,22.45
2022-12-13T17:20:21.373Z,25.33
2022-12-13T17:22:49.951Z,17.38
2022-12-13T17:25:18.184Z,36.92
2022-12-13T17:27:46.405Z,27.40
2022-12-13T17:30:17.855Z,27.65
2022-12-13T17:32:46.501Z,34.90
2022-12-13T17:35:18.161Z,46.95
2022-12-13T17:37:46.907Z,54.15
2022-12-13T17:40:17.051Z,29.23
2022-12-13T17:42:48.617Z,29.92
2022-12-13T17:45:19.820Z,36.33
2022-12-13T17:47:48.018Z,35.20
2022-12-13T17:50:16.378Z,32.40
2022-12-13T17:52:45.128Z,29.17
2022-12-13T17:55:18.090Z,34.38
2022-12-13T17:57:47.156Z,52.03
2022-12-13T18:00:16.139Z,51.33
2022-12-13T18:02:55.439Z,34.65
2022-12-13T18:05:26.800Z,34.53
2022-12-13T18:07:56.439Z,49.58
2022-12-13T18:10:29.460Z,37.78
2022-12-13T18:12:58.500Z,29.23
2022-12-13T18:15:27.022Z,34.42
2022-12-13T18:18:11.214Z,31.27
2022-12-13T18:20:40.984Z,29.63
2022-12-13T18:23:09.421Z,29.38
2022-12-13T18:25:38.939Z,32.47
2022-12-13T18:28:09.812Z,30.08
2022-12-13T18:30:39.425Z,31.55
2022-12-13T18:33:07.894Z,32.90
2022-12-13T18:35:36.467Z,50.38
2022-12-13T18:38:04.902Z,28.90
2022-12-13T18:40:33.535Z,25.55
2022-12-13T18:43:02.659Z,31.05
2022-12-13T18:45:31.319Z,27.60
2022-12-13T18:48:00.070Z,32.85
2022-12-13T18:50:28.397Z,33.38
2022-12-13T18:52:57.059Z,28.33
2022-12-13T18:55:25.462Z,23.30
2022-12-13T18:57:54.368Z,25.95
2022-12-13T19:00:24.739Z,30.48
2022-12-13T19:02:53.600Z,28.55
2022-12-13T19:05:22.494Z,29.45
2022-12-13T19:07:51.210Z,35.80
2022-12-13T19:10:19.769Z,37.08
2022-12-13T19:12:48.680Z,33.03
2022-12-13T19:15:19.229Z,30.17
2022-12-13T19:17:48.312Z,27.80
2022-12-13T19:20:16.987Z,27.85
2022-12-13T19:22:46.822Z,25.48
2022-12-13T19:25:17.305Z,21.85
2022-12-13T19:27:47.840Z,31.52
2022-12-13T19:30:18.099Z,29.02
2022-12-13T19:32:48.358Z,27.90
2022-12-13T19:35:17.311Z,29.48
2022-12-13T19:37:46.082Z,26.88
2022-12-13T19:40:14.482Z,29.67
2022-12-13T19:42:43.231Z,34.40
2022-12-13T19:45:11.827Z,32.60
2022-12-13T19:47:40.466Z,21.90
2022-12-13T19:50:09.306Z,29.20
2022-12-13T19:52:38.783Z,28.15
2022-12-13T19:55:07.798Z,21.70
2022-12-13T19:57:36.350Z,29.25
2022-12-13T20:00:05.944Z,34.83
2022-12-13T20:02:34.493Z,36.60
2022-12-13T20:05:08.797Z,35.17
2022-12-13T20:15:47.943Z,31.30
2022-12-13T20:18:16.740Z,28.45
2022-12-13T20:21:10.457Z,20.95
2022-12-13T20:23:35.942Z,25.27
2022-12-13T20:26:07.480Z,23.05
2022-12-13T20:28:35.867Z,32.28
2022-12-13T20:31:15.988Z,31.45
2022-12-13T20:33:45.013Z,18.20
2022-12-13T20:36:25.571Z,22.45
2022-12-13T20:38:57.397Z,21.35
2022-12-13T20:41:30.655Z,22.30
2022-12-13T20:44:03.415Z,27.17
2022-12-13T20:46:32.465Z,36.75
2022-12-13T20:49:03.902Z,31.13
2022-12-13T20:51:33.850Z,32.83
2022-12-13T20:54:02.374Z,38.08
2022-12-13T20:56:35.533Z,43.10
2022-12-13T20:59:06.034Z,51.33
2022-12-13T21:01:38.799Z,42.67
2022-12-13T21:04:09.896Z,29.70
2022-12-13T21:06:41.113Z,27.17
2022-12-13T21:09:10.813Z,21.80
2022-12-13T21:11:42.375Z,31.88
2022-12-13T21:14:23.095Z,26.48
2022-12-13T21:16:55.320Z,31.38
2022-12-13T21:19:30.949Z,27.52
2022-12-13T21:22:02.992Z,21.85
2022-12-13T21:24:31.646Z,20.15
2022-12-13T21:27:00.179Z,21.25
2022-12-13T21:29:28.408Z,23.17
2022-12-13T21:31:56.771Z,25.42
2022-12-13T21:34:43.808Z,40.78
2022-12-13T21:37:11.996Z,30.25
2022-12-13T21:39:40.132Z,27.58
2022-12-13T21:42:08.040Z,29.58
2022-12-13T21:44:35.987Z,29.05
2022-12-13T21:47:13.756Z,24.23
2022-12-13T21:49:42.105Z,27.65
2022-12-13T21:52:17.921Z,23.92
2022-12-13T21:54:46.012Z,23.95
2022-12-13T21:57:34.337Z,23.08
2022-12-13T22:00:02.347Z,28.65
2022-12-13T22:02:31.054Z,18.92
2022-12-13T22:04:59.401Z,16.55
2022-12-13T22:07:32.138Z,17.60
2022-12-13T22:10:02.169Z,17.80
2022-12-13T22:12:35.492Z,17.30
2022-12-13T22:15:07.125Z,23.23
2022-12-13T22:17:36.395Z,13.40
2022-12-13T22:20:06.479Z,11.73
2022-12-13T22:22:34.908Z,11.48
2022-12-13T22:25:02.847Z,12.65
2022-12-13T22:27:30.937Z,11.77
2022-12-13T22:29:59.886Z,11.30
2022-12-13T22:32:30.780Z,10.77
2022-12-13T22:34:58.771Z,10.57
2022-12-13T22:37:27.119Z,10.95
2022-12-13T22:39:54.980Z,12.13
2022-12-13T22:42:23.068Z,11.88
2022-12-13T22:44:51.162Z,12.95
2022-12-13T22:47:20.245Z,10.48
2022-12-13T22:49:48.633Z,11.45
2022-12-13T22:52:18.183Z,11.65
2022-12-13T22:54:46.137Z,12.95
2022-12-13T22:57:14.261Z,12.05
2022-12-13T22:59:42.218Z,13.77
2022-12-13T23:02:10.380Z,14.05
2022-12-13T23:04:43.763Z,15.63
2022-12-13T23:07:11.643Z,17.63
2022-12-13T23:09:39.493Z,14.45
2022-12-13T23:12:25.830Z,14.18
2022-12-13T23:14:53.747Z,16.17
2022-12-13T23:17:21.664Z,12.45
2022-12-13T23:19:53.557Z,14.77
2022-12-13T23:22:23.931Z,14.50
2022-12-13T23:24:53.125Z,14.27
2022-12-13T23:29:49.896Z,10.00
2022-12-13T23:32:17.736Z,13.50
2022-12-13T23:34:45.575Z,12.82
2022-12-13T23:37:13.881Z,14.35
2022-12-13T23:39:41.904Z,12.88
2022-12-13T23:42:10.051Z,9.52
2022-12-13T23:44:37.963Z,12.55
2022-12-13T23:47:05.978Z,12.50
2022-12-13T23:49:33.817Z,11.80
2022-12-13T23:52:01.635Z,10.98
2022-12-13T23:54:29.838Z,9.18
2022-12-13T23:56:57.778Z,10.65
2022-12-13T23:59:27.923Z,11.88
